Time;durP1;ratioP1;P1;durP2;ratioP2;P2;SDS_P1;SDS_P2;PMS_P1;PMS_P2;Temp;Humidity;BMP_temperature;BMP_pressure;BME280_temperature;BME280_humidity;BME280_pressure;Samples;Min_cycle;Max_cycle;Signal;HPM_P1;HPM_P2
2021/12/15 00:00:01;;;;;;;;;;;4.40;99.90;;;;;;5054195;28;20018;-81
2021/12/15 00:02:28;;;;;;;;;;;4.40;99.90;;;;;;5058919;28;20415;-81
2021/12/15 00:04:55;;;;;;;;;;;4.40;99.90;;;;;;5056675;28;20391;-81
2021/12/15 00:07:21;;;;;;;;;;;4.40;99.90;;;;;;5053306;28;19913;-81
2021/12/15 00:09:47;;;;;;;;;;;4.30;99.90;;;;;;5050048;28;19910;-81
2021/12/15 00:12:14;;;;;;;;;;;4.40;99.90;;;;;;5056236;28;19916;-82
2021/12/15 00:14:40;;;;;;;;;;;4.40;99.90;;;;;;5057750;28;19909;-81
2021/12/15 00:17:05;;;;;;;;;;;4.40;99.90;;;;;;5050166;28;20035;-81
2021/12/15 00:19:31;;;;;;;;;;;4.40;99.90;;;;;;5049370;28;19919;-81
2021/12/15 00:21:59;;;;;;;;;;;4.30;99.90;;;;;;5056769;28;19916;-82
2021/12/15 00:24:25;;;;;;;;;;;4.30;99.90;;;;;;5056725;28;19928;-81
2021/12/15 00:26:52;;;;;;;;;;;4.30;99.90;;;;;;5045154;28;20022;-81
2021/12/15 00:29:18;;;;;;;;;;;4.40;99.90;;;;;;5056932;28;20027;-82
2021/12/15 00:31:45;;;;;;;;;;;4.40;99.90;;;;;;5055765;28;19955;-81
2021/12/15 00:34:11;;;;;;;;;;;4.40;99.90;;;;;;5040687;28;19913;-82
2021/12/15 00:36:37;;;;;;;;;;;4.40;99.90;;;;;;5040237;28;20372;-81
2021/12/15 00:39:03;;;;;;;;;;;4.30;99.90;;;;;;5044373;28;19916;-82
2021/12/15 00:41:29;;;;;;;;;;;4.30;99.90;;;;;;5051467;28;19923;-81
2021/12/15 00:43:54;;;;;;;;;;;4.30;99.90;;;;;;5056512;28;19919;-83
2021/12/15 00:46:20;;;;;;;;;;;4.30;99.90;;;;;;5058133;28;19916;-82
2021/12/15 00:48:48;;;;;;;;;;;4.30;99.90;;;;;;5056964;28;19935;-82
2021/12/15 00:51:14;;;;;;;;;;;4.30;99.90;;;;;;5055906;28;20031;-82
2021/12/15 00:53:39;;;;;;;;;;;4.40;99.90;;;;;;5045676;28;20378;-81
2021/12/15 00:56:05;;;;;;;;;;;4.30;99.90;;;;;;5048900;28;19909;-82
2021/12/15 00:58:30;;;;;;;;;;;4.30;99.90;;;;;;5055201;28;20358;-82
2021/12/15 01:00:58;;;;;;;;;;;4.30;99.90;;;;;;5054611;28;19986;-81
2021/12/15 01:03:23;;;;;;;;;;;4.40;99.90;;;;;;5046582;28;19999;-82
2021/12/15 01:05:51;;;;;;;;;;;4.40;99.90;;;;;;5056868;28;19963;-81
2021/12/15 01:08:19;;;;;;;;;;;4.40;99.90;;;;;;5057029;28;20138;-81
2021/12/15 01:11:00;;;;;;;;;;;4.40;99.90;;;;;;5056340;28;20270;-82
2021/12/15 01:21:40;;;;;;;;;;;4.40;99.90;;;;;;5054785;28;19967;-82
2021/12/15 01:24:06;;;;;;;;;;;4.40;99.90;;;;;;5053847;28;19956;-82
2021/12/15 01:26:32;;;;;;;;;;;4.30;99.90;;;;;;5053023;28;19921;-82
2021/12/15 01:28:57;;;;;;;;;;;4.30;99.90;;;;;;5053946;28;20263;-82
2021/12/15 01:31:23;;;;;;;;;;;4.40;99.90;;;;;;5050960;28;19960;-82
2021/12/15 01:33:48;;;;;;;;;;;4.40;99.90;;;;;;5054230;28;19916;-82
2021/12/15 01:36:14;;;;;;;;;;;4.30;99.90;;;;;;5053471;28;20284;-82
2021/12/15 01:38:41;;;;;;;;;;;4.30;99.90;;;;;;5053480;28;20370;-81
2021/12/15 01:41:07;;;;;;;;;;;4.40;99.90;;;;;;5054240;28;19909;-81
2021/12/15 01:46:59;;;;;;;;;;;4.40;99.90;;;;;;5028693;28;20354;-82
2021/12/15 01:49:37;;;;;;;;;;;4.40;99.90;;;;;;5051252;28;19908;-82
2021/12/15 01:52:04;;;;;;;;;;;4.30;99.90;;;;;;5052951;28;19974;-81
2021/12/15 01:54:31;;;;;;;;;;;4.30;99.90;;;;;;5054231;28;19916;-82
2021/12/15 01:56:57;;;;;;;;;;;4.30;99.90;;;;;;5052540;28;19909;-82
2021/12/15 01:59:24;;;;;;;;;;;4.40;99.90;;;;;;5052861;28;19909;-82
2021/12/15 02:01:50;;;;;;;;;;;4.40;99.90;;;;;;5050951;28;19909;-82
2021/12/15 02:04:18;;;;;;;;;;;4.40;99.90;;;;;;5050379;28;20259;-82
2021/12/15 02:06:44;;;;;;;;;;;4.40;99.90;;;;;;5049868;28;20428;-82
2021/12/15 02:09:11;;;;;;;;;;;4.40;99.90;;;;;;5051100;28;19909;-82
2021/12/15 02:11:37;;;;;;;;;;;4.40;99.90;;;;;;5051314;28;19995;-82
2021/12/15 02:14:02;;;;;;;;;;;4.40;99.90;;;;;;5049218;28;20004;-82
2021/12/15 02:16:29;;;;;;;;;;;4.30;99.90;;;;;;5052294;28;19913;-82
2021/12/15 02:18:54;;;;;;;;;;;4.30;99.90;;;;;;5052827;28;19909;-81
2021/12/15 02:21:20;;;;;;;;;;;4.30;99.90;;;;;;5054445;28;19909;-82
2021/12/15 02:23:53;;;;;;;;;;;4.40;99.90;;;;;;5052567;28;19974;-82
2021/12/15 02:26:22;;;;;;;;;;;4.30;99.90;;;;;;5052604;28;20361;-82
2021/12/15 02:28:49;;;;;;;;;;;4.30;99.90;;;;;;5054255;28;19912;-82
2021/12/15 02:31:24;;;;;;;;;;;4.30;99.90;;;;;;5054253;28;19909;-82
2021/12/15 02:39:19;;;;;;;;;;;4.40;99.90;;;;;;5054328;28;19916;-82
2021/12/15 02:41:45;;;;;;;;;;;4.40;99.90;;;;;;5052732;28;19909;-82
2021/12/15 02:44:16;;;;;;;;;;;4.30;99.90;;;;;;5053744;28;20002;-82
2021/12/15 02:46:43;;;;;;;;;;;4.30;99.90;;;;;;5046146;28;19921;-82
2021/12/15 02:49:10;;;;;;;;;;;4.40;99.90;;;;;;5053716;28;20023;-82
2021/12/15 02:51:36;;;;;;;;;;;4.30;99.90;;;;;;5053836;28;19913;-82
2021/12/15 02:54:03;;;;;;;;;;;4.30;99.90;;;;;;5053116;28;20030;-82
2021/12/15 02:56:29;;;;;;;;;;;4.40;99.90;;;;;;5046858;28;20338;-82
2021/12/15 02:59:03;;;;;;;;;;;4.40;99.90;;;;;;5053443;28;19909;-82
2021/12/15 03:01:42;;;;;;;;;;;4.40;99.90;;;;;;5053654;28;19916;-82
2021/12/15 03:06:58;;;;;;;;;;;4.40;99.90;;;;;;5054316;28;19954;-82
2021/12/15 03:17:33;;;;;;;;;;;4.40;99.90;;;;;;5053246;28;19935;-81
2021/12/15 03:19:59;;;;;;;;;;;4.40;99.90;;;;;;5052438;28;20354;-82
2021/12/15 03:22:24;;;;;;;;;;;4.40;99.90;;;;;;5052871;28;19919;-81
2021/12/15 03:24:50;;;;;;;;;;;4.40;99.90;;;;;;5051444;28;20366;-82
2021/12/15 03:27:20;;;;;;;;;;;4.40;99.90;;;;;;5053277;28;19916;-82
2021/12/15 03:37:46;;;;;;;;;;;4.40;99.90;;;;;;5053266;28;19956;-82
2021/12/15 03:40:20;;;;;;;;;;;4.40;99.90;;;;;;5051508;28;19963;-82
2021/12/15 03:42:50;;;;;;;;;;;4.40;99.90;;;;;;5051750;28;19916;-81
2021/12/15 03:45:18;;;;;;;;;;;4.40;99.90;;;;;;5052389;28;19913;-82
2021/12/15 03:47:46;;;;;;;;;;;4.40;99.90;;;;;;5048297;28;20472;-82
2021/12/15 03:50:13;;;;;;;;;;;4.40;99.90;;;;;;5052866;28;19908;-81
2021/12/15 03:52:39;;;;;;;;;;;4.40;99.90;;;;;;5052707;28;19916;-82
2021/12/15 03:55:06;;;;;;;;;;;4.40;99.90;;;;;;5051182;28;19909;-82
2021/12/15 03:57:31;;;;;;;;;;;4.40;99.90;;;;;;5058100;28;19909;-82
2021/12/15 03:59:57;;;;;;;;;;;4.40;99.90;;;;;;5053085;28;19963;-82
2021/12/15 04:02:23;;;;;;;;;;;4.40;99.90;;;;;;5053900;28;20334;-82
2021/12/15 04:04:50;;;;;;;;;;;4.40;99.90;;;;;;5050864;28;19935;-82
2021/12/15 04:07:16;;;;;;;;;;;4.30;99.90;;;;;;5057524;28;19912;-82
2021/12/15 04:09:42;;;;;;;;;;;4.20;99.90;;;;;;5057605;28;19913;-82
2021/12/15 04:12:08;;;;;;;;;;;4.10;99.90;;;;;;5057378;28;20334;-82
2021/12/15 04:14:43;;;;;;;;;;;4.00;99.90;;;;;;5058318;28;19909;-82
2021/12/15 04:17:26;;;;;;;;;;;4.00;99.90;;;;;;5057527;28;19991;-82
2021/12/15 04:19:53;;;;;;;;;;;3.90;99.90;;;;;;5056936;28;19916;-82
2021/12/15 04:22:18;;;;;;;;;;;3.90;99.90;;;;;;5058428;28;20384;-82
2021/12/15 04:24:44;;;;;;;;;;;3.90;99.90;;;;;;5058236;28;19913;-82
2021/12/15 04:27:09;;;;;;;;;;;4.00;99.90;;;;;;5056663;28;19963;-82
2021/12/15 04:29:35;;;;;;;;;;;4.00;99.90;;;;;;5056990;28;19908;-81
2021/12/15 04:32:09;;;;;;;;;;;3.90;99.90;;;;;;5053017;28;19916;-82
2021/12/15 04:34:35;;;;;;;;;;;3.90;99.90;;;;;;5055458;28;19915;-82
2021/12/15 04:37:00;;;;;;;;;;;3.90;99.90;;;;;;5058364;28;19992;-82
2021/12/15 04:39:27;;;;;;;;;;;3.90;99.90;;;;;;5057208;28;19909;-82
2021/12/15 04:41:54;;;;;;;;;;;4.00;99.90;;;;;;5056166;28;19917;-82
2021/12/15 04:44:24;;;;;;;;;;;4.10;99.90;;;;;;5056302;28;19913;-82
2021/12/15 04:46:58;;;;;;;;;;;4.00;99.90;;;;;;5052061;28;20289;-81
2021/12/15 04:49:24;;;;;;;;;;;4.10;99.90;;;;;;5050170;28;19909;-82
2021/12/15 04:51:50;;;;;;;;;;;4.00;99.90;;;;;;5052387;28;19909;-82
2021/12/15 04:54:16;;;;;;;;;;;4.00;99.90;;;;;;5056580;28;19909;-82
2021/12/15 04:56:42;;;;;;;;;;;4.10;99.90;;;;;;5054987;28;19913;-82
2021/12/15 04:59:08;;;;;;;;;;;4.00;99.90;;;;;;5051938;28;20384;-81
2021/12/15 05:01:34;;;;;;;;;;;4.00;99.90;;;;;;5057051;28;19915;-82
2021/12/15 05:03:59;;;;;;;;;;;4.20;99.90;;;;;;5056134;28;19999;-82
2021/12/15 05:06:25;;;;;;;;;;;4.10;99.90;;;;;;5055033;28;19963;-82
2021/12/15 05:08:50;;;;;;;;;;;4.00;99.90;;;;;;5056228;28;19913;-81
2021/12/15 05:11:16;;;;;;;;;;;4.10;99.90;;;;;;5056518;28;20324;-81
2021/12/15 05:13:42;;;;;;;;;;;4.10;99.90;;;;;;5048253;28;19919;-81
2021/12/15 05:16:07;;;;;;;;;;;4.00;99.90;;;;;;5056347;28;20289;-82
2021/12/15 05:18:33;;;;;;;;;;;4.00;99.90;;;;;;5056273;28;19959;-82
2021/12/15 05:20:59;;;;;;;;;;;4.00;99.90;;;;;;5056284;28;19932;-81
2021/12/15 05:23:29;;;;;;;;;;;4.00;99.90;;;;;;5053676;28;19913;-82
2021/12/15 05:25:55;;;;;;;;;;;4.00;99.90;;;;;;5055961;28;19960;-81
2021/12/15 05:28:21;;;;;;;;;;;4.00;99.90;;;;;;5055883;28;19924;-81
2021/12/15 05:30:46;;;;;;;;;;;4.10;99.90;;;;;;5051772;28;19909;-82
2021/12/15 05:33:12;;;;;;;;;;;4.20;99.90;;;;;;5055558;28;19935;-82
2021/12/15 05:35:37;;;;;;;;;;;4.20;99.90;;;;;;5054041;28;20362;-81
2021/12/15 05:38:04;;;;;;;;;;;4.20;99.90;;;;;;5055562;28;20382;-82
2021/12/15 05:40:30;;;;;;;;;;;4.30;99.90;;;;;;5054473;28;19909;-82
2021/12/15 05:42:56;;;;;;;;;;;4.30;99.90;;;;;;5056299;28;20400;-81
2021/12/15 05:45:26;;;;;;;;;;;4.30;99.90;;;;;;5054163;28;20456;-82
2021/12/15 05:47:51;;;;;;;;;;;4.20;99.90;;;;;;5056075;28;19919;-82
2021/12/15 05:50:18;;;;;;;;;;;4.20;99.90;;;;;;5055935;28;19995;-82
2021/12/15 05:52:44;;;;;;;;;;;4.10;99.90;;;;;;5056021;28;19913;-82
2021/12/15 05:55:10;;;;;;;;;;;4.00;99.90;;;;;;5054408;28;19931;-81
2021/12/15 05:57:36;;;;;;;;;;;4.10;99.90;;;;;;5054156;28;19974;-82
2021/12/15 06:00:04;;;;;;;;;;;4.10;99.90;;;;;;5053658;28;20432;-81
2021/12/15 06:02:30;;;;;;;;;;;4.10;99.90;;;;;;5047076;28;19916;-82
2021/12/15 06:04:55;;;;;;;;;;;4.20;99.90;;;;;;5054984;28;19913;-82
2021/12/15 06:07:21;;;;;;;;;;;4.20;99.90;;;;;;5055698;28;20373;-82
2021/12/15 06:09:46;;;;;;;;;;;4.20;99.90;;;;;;5055512;28;20289;-82
2021/12/15 06:12:12;;;;;;;;;;;4.20;99.90;;;;;;5054221;28;20365;-82
2021/12/15 06:14:38;;;;;;;;;;;4.20;99.90;;;;;;5055348;28;19915;-82
2021/12/15 06:17:05;;;;;;;;;;;4.20;99.90;;;;;;5055558;28;20137;-82
2021/12/15 06:19:31;;;;;;;;;;;4.20;99.90;;;;;;5054189;28;19909;-81
2021/12/15 06:21:56;;;;;;;;;;;4.10;99.90;;;;;;5053069;28;19909;-80
2021/12/15 06:24:22;;;;;;;;;;;4.00;99.90;;;;;;5056268;28;19958;-81
2021/12/15 06:26:49;;;;;;;;;;;4.00;99.90;;;;;;5057199;28;20333;-81
2021/12/15 06:29:15;;;;;;;;;;;4.10;99.90;;;;;;5057278;28;19916;-81
2021/12/15 06:31:40;;;;;;;;;;;4.10;99.90;;;;;;5055363;28;19909;-81
2021/12/15 06:34:06;;;;;;;;;;;4.10;99.90;;;;;;5056124;28;19913;-81
2021/12/15 06:36:33;;;;;;;;;;;4.00;99.90;;;;;;5055276;28;19936;-81
2021/12/15 06:38:59;;;;;;;;;;;4.10;99.90;;;;;;5055292;28;19909;-81
2021/12/15 06:41:25;;;;;;;;;;;4.10;99.90;;;;;;5056714;28;19924;-81
2021/12/15 06:43:54;;;;;;;;;;;4.10;99.90;;;;;;5055950;28;19909;-80
2021/12/15 06:59:42;;;;;;;;;;;4.10;99.90;;;;;;5056328;28;19951;-80
2021/12/15 07:02:08;;;;;;;;;;;4.00;99.90;;;;;;5054655;28;19913;-80
2021/12/15 07:04:34;;;;;;;;;;;3.90;99.90;;;;;;5055271;28;19913;-80
2021/12/15 07:06:59;;;;;;;;;;;3.80;99.90;;;;;;5055983;28;19908;-79
2021/12/15 07:09:25;;;;;;;;;;;3.80;99.90;;;;;;5053677;28;19954;-79
2021/12/15 07:11:52;;;;;;;;;;;3.80;99.90;;;;;;5056449;28;20094;-80
2021/12/15 07:14:18;;;;;;;;;;;3.90;99.90;;;;;;5053883;28;19915;-80
2021/12/15 07:16:46;;;;;;;;;;;4.10;99.90;;;;;;5052798;28;19916;-80
2021/12/15 07:19:29;;;;;;;;;;;4.20;99.90;;;;;;5056069;28;19913;-80
2021/12/15 07:22:09;;;;;;;;;;;4.20;99.90;;;;;;5055674;28;19908;-80
2021/12/15 07:24:35;;;;;;;;;;;4.20;99.90;;;;;;5055498;28;19917;-79
2021/12/15 07:27:01;;;;;;;;;;;4.20;99.90;;;;;;5053871;28;20366;-80
2021/12/15 07:29:27;;;;;;;;;;;4.20;99.90;;;;;;5054953;28;19909;-80
2021/12/15 07:31:53;;;;;;;;;;;4.20;99.90;;;;;;5054890;28;19916;-80
2021/12/15 07:34:18;;;;;;;;;;;4.20;99.90;;;;;;5055175;28;19909;-79
2021/12/15 07:36:44;;;;;;;;;;;4.30;99.90;;;;;;5049828;28;19916;-80
2021/12/15 07:39:11;;;;;;;;;;;4.20;99.90;;;;;;5057970;28;20350;-80
2021/12/15 07:41:49;;;;;;;;;;;4.20;99.90;;;;;;5059216;28;20369;-80
2021/12/15 07:44:15;;;;;;;;;;;4.20;99.90;;;;;;5058240;28;20277;-80
2021/12/15 07:46:42;;;;;;;;;;;4.20;99.90;;;;;;5057209;28;19916;-80
2021/12/15 07:49:08;;;;;;;;;;;4.20;99.90;;;;;;5058586;28;20397;-80
2021/12/15 07:51:34;;;;;;;;;;;4.20;99.90;;;;;;5058689;28;19986;-79
2021/12/15 07:53:59;;;;;;;;;;;4.20;99.90;;;;;;5058695;28;19909;-79
2021/12/15 07:56:25;;;;;;;;;;;4.20;99.90;;;;;;5057181;28;19911;-79
2021/12/15 07:58:50;;;;;;;;;;;4.10;99.90;;;;;;5057484;28;19916;-79
2021/12/15 08:01:18;;;;;;;;;;;4.10;99.90;;;;;;5073413;28;20262;-79
2021/12/15 08:03:44;;;;;;;;;;;4.10;99.90;;;;;;5056515;28;19931;-80
2021/12/15 08:06:10;;;;;;;;;;;4.00;99.90;;;;;;5056436;28;19913;-79
2021/12/15 08:08:36;;;;;;;;;;;4.10;99.90;;;;;;5058022;28;20000;-79
2021/12/15 08:11:02;;;;;;;;;;;4.20;99.90;;;;;;5056469;28;19940;-79
2021/12/15 08:13:30;;;;;;;;;;;4.20;99.90;;;;;;5057720;28;19948;-79
2021/12/15 08:15:55;;;;;;;;;;;4.20;99.90;;;;;;5052876;28;20000;-80
2021/12/15 08:18:21;;;;;;;;;;;4.20;99.90;;;;;;5048911;28;19944;-80
2021/12/15 08:20:47;;;;;;;;;;;4.20;99.90;;;;;;5057926;28;19913;-79
2021/12/15 08:23:13;;;;;;;;;;;4.20;99.90;;;;;;5056202;28;19917;-79
2021/12/15 08:25:39;;;;;;;;;;;4.20;99.90;;;;;;5057203;28;19913;-81
2021/12/15 08:28:06;;;;;;;;;;;4.20;99.90;;;;;;5057316;28;19923;-79
2021/12/15 08:30:32;;;;;;;;;;;4.20;99.90;;;;;;5056221;28;19915;-79
2021/12/15 08:32:59;;;;;;;;;;;4.20;99.90;;;;;;5057172;28;19939;-80
2021/12/15 08:35:29;;;;;;;;;;;4.20;99.90;;;;;;5056099;28;19955;-79
2021/12/15 08:37:54;;;;;;;;;;;4.20;99.90;;;;;;5057605;28;20369;-79
2021/12/15 08:40:21;;;;;;;;;;;4.20;99.90;;;;;;5057588;28;19931;-79
2021/12/15 08:42:47;;;;;;;;;;;4.20;99.90;;;;;;5057600;28;19955;-79
2021/12/15 08:45:13;;;;;;;;;;;4.20;99.90;;;;;;5055180;28;19917;-79
2021/12/15 08:47:39;;;;;;;;;;;4.20;99.90;;;;;;5055589;28;19917;-79
2021/12/15 08:50:06;;;;;;;;;;;4.20;99.90;;;;;;5057201;28;19932;-79
2021/12/15 08:52:32;;;;;;;;;;;4.20;99.90;;;;;;5055368;28;19956;-79
2021/12/15 08:54:57;;;;;;;;;;;4.20;99.90;;;;;;5055946;28;19909;-79
2021/12/15 08:57:23;;;;;;;;;;;4.20;99.90;;;;;;5055763;28;19908;-79
2021/12/15 08:59:49;;;;;;;;;;;4.20;99.90;;;;;;5057074;28;20305;-82
2021/12/15 09:02:14;;;;;;;;;;;4.30;99.90;;;;;;5054747;28;19915;-79
2021/12/15 09:04:40;;;;;;;;;;;4.30;99.90;;;;;;5053432;28;20397;-79
2021/12/15 09:07:05;;;;;;;;;;;4.30;99.90;;;;;;5056011;28;19912;-79
2021/12/15 09:09:31;;;;;;;;;;;4.30;99.90;;;;;;5056699;28;19916;-79
2021/12/15 09:11:56;;;;;;;;;;;4.20;99.90;;;;;;5056636;28;20008;-79
2021/12/15 09:14:22;;;;;;;;;;;4.30;99.90;;;;;;5055772;28;19913;-79
2021/12/15 09:16:50;;;;;;;;;;;4.30;99.90;;;;;;5055717;28;19908;-79
2021/12/15 09:19:15;;;;;;;;;;;4.20;99.90;;;;;;5055769;28;19968;-79
2021/12/15 09:21:42;;;;;;;;;;;4.30;99.90;;;;;;5056160;28;20341;-79
2021/12/15 09:24:10;;;;;;;;;;;4.30;99.90;;;;;;5055355;28;19934;-79
2021/12/15 09:26:35;;;;;;;;;;;4.20;99.90;;;;;;5055291;28;19939;-79
2021/12/15 09:29:01;;;;;;;;;;;4.10;99.90;;;;;;5053118;28;20003;-79
2021/12/15 09:31:27;;;;;;;;;;;4.20;99.90;;;;;;5055093;28;19991;-79
2021/12/15 09:33:53;;;;;;;;;;;4.20;99.90;;;;;;5053480;28;19948;-79
2021/12/15 09:36:20;;;;;;;;;;;4.10;99.90;;;;;;5055095;28;19908;-78
2021/12/15 09:38:47;;;;;;;;;;;4.10;99.90;;;;;;5053227;28;19988;-79
2021/12/15 09:41:13;;;;;;;;;;;4.10;99.90;;;;;;5054547;28;19919;-79
2021/12/15 09:43:40;;;;;;;;;;;4.20;99.90;;;;;;5054222;28;19916;-79
2021/12/15 09:46:36;;;;;;;;;;;4.20;99.90;;;;;;5054822;28;20373;-79
2021/12/15 09:57:29;;;;;;;;;;;4.30;99.90;;;;;;5050066;28;19915;-79
2021/12/15 10:02:51;;;;;;;;;;;4.30;99.90;;;;;;5055547;28;19919;-79
2021/12/15 10:05:38;;;;;;;;;;;4.30;99.90;;;;;;5050436;28;20373;-79
2021/12/15 10:11:14;;;;;;;;;;;4.20;99.90;;;;;;5054930;28;19954;-78
2021/12/15 10:19:31;;;;;;;;;;;4.30;99.90;;;;;;5053939;28;19943;-79
2021/12/15 10:22:10;;;;;;;;;;;4.10;99.90;;;;;;5053854;28;20362;-79
2021/12/15 10:24:45;;;;;;;;;;;4.10;99.90;;;;;;5051851;28;19913;-79
2021/12/15 10:27:11;;;;;;;;;;;4.10;99.90;;;;;;5053818;28;19923;-79
2021/12/15 10:29:55;;;;;;;;;;;4.10;99.90;;;;;;5053467;28;19909;-79
2021/12/15 10:32:26;;;;;;;;;;;4.00;99.90;;;;;;5053244;28;19909;-79
2021/12/15 10:35:18;;;;;;;;;;;4.10;99.90;;;;;;5052640;28;19919;-81
2021/12/15 10:38:03;;;;;;;;;;;4.10;99.90;;;;;;5051960;28;19909;-81
2021/12/15 10:40:29;;;;;;;;;;;4.30;99.90;;;;;;5052314;28;19909;-81
2021/12/15 10:43:02;;;;;;;;;;;4.10;99.90;;;;;;5046868;28;19921;-81
2021/12/15 10:45:33;;;;;;;;;;;4.10;99.90;;;;;;5048022;28;19913;-80
2021/12/15 10:47:58;;;;;;;;;;;4.10;99.90;;;;;;5045747;28;19913;-81
2021/12/15 10:50:24;;;;;;;;;;;4.10;99.90;;;;;;5047941;28;19954;-80
2021/12/15 10:52:51;;;;;;;;;;;4.00;99.90;;;;;;5055278;28;20270;-81
2021/12/15 10:55:17;;;;;;;;;;;4.10;99.90;;;;;;5052473;28;19913;-80
2021/12/15 10:57:44;;;;;;;;;;;4.10;99.90;;;;;;5051877;28;19920;-80
2021/12/15 11:00:13;;;;;;;;;;;4.10;99.90;;;;;;5050839;28;19913;-80
2021/12/15 11:02:38;;;;;;;;;;;4.00;99.90;;;;;;5050543;28;19913;-80
2021/12/15 11:05:13;;;;;;;;;;;4.10;99.90;;;;;;5041834;28;19927;-81
2021/12/15 11:07:44;;;;;;;;;;;4.20;99.90;;;;;;5054091;28;19920;-81
2021/12/15 11:10:12;;;;;;;;;;;4.20;99.90;;;;;;5050842;28;19913;-80
2021/12/15 11:12:43;;;;;;;;;;;4.20;99.90;;;;;;5053630;28;19978;-80
2021/12/15 11:15:22;;;;;;;;;;;4.30;99.90;;;;;;5053046;28;19912;-81
2021/12/15 11:17:48;;;;;;;;;;;4.20;99.90;;;;;;5051684;28;19955;-80
2021/12/15 11:20:16;;;;;;;;;;;4.10;99.90;;;;;;5054344;28;19909;-80
2021/12/15 11:22:44;;;;;;;;;;;4.20;99.90;;;;;;5053004;28;19912;-80
2021/12/15 11:25:49;;;;;;;;;;;4.10;99.90;;;;;;5056926;28;20382;-80
2021/12/15 11:28:20;;;;;;;;;;;4.20;99.90;;;;;;5033135;28;19931;-80
2021/12/15 11:30:48;;;;;;;;;;;4.20;99.90;;;;;;5014130;28;19920;-80
2021/12/15 11:33:15;;;;;;;;;;;4.10;99.90;;;;;;5036303;28;19912;-80
2021/12/15 11:35:43;;;;;;;;;;;4.00;99.90;;;;;;5049126;28;19913;-80
2021/12/15 11:38:14;;;;;;;;;;;4.10;99.90;;;;;;5055329;28;19909;-79
2021/12/15 11:40:39;;;;;;;;;;;4.10;99.90;;;;;;5056065;28;20011;-79
2021/12/15 11:43:05;;;;;;;;;;;4.10;99.90;;;;;;5053064;28;19963;-79
2021/12/15 11:45:31;;;;;;;;;;;4.30;99.90;;;;;;5056441;28;19916;-78
2021/12/15 11:48:22;;;;;;;;;;;4.10;99.90;;;;;;5057275;28;19909;-78
2021/12/15 11:50:49;;;;;;;;;;;4.20;99.90;;;;;;5050713;28;19955;-78
2021/12/15 11:53:35;;;;;;;;;;;4.20;99.90;;;;;;5050995;28;19955;-79
2021/12/15 11:56:10;;;;;;;;;;;4.20;99.90;;;;;;5053006;28;19909;-79
2021/12/15 11:58:35;;;;;;;;;;;4.20;99.90;;;;;;5052211;28;19963;-79
2021/12/15 12:01:01;;;;;;;;;;;4.20;99.90;;;;;;5058006;28;20289;-79
2021/12/15 12:03:27;;;;;;;;;;;4.30;99.90;;;;;;5056549;28;19982;-81
2021/12/15 12:05:52;;;;;;;;;;;4.30;99.90;;;;;;5057259;28;19985;-80
2021/12/15 12:08:18;;;;;;;;;;;4.20;99.90;;;;;;5072605;28;19930;-79
2021/12/15 12:10:47;;;;;;;;;;;4.20;99.90;;;;;;5070389;28;19916;-80
2021/12/15 12:13:19;;;;;;;;;;;4.20;99.90;;;;;;5049971;28;19919;-80
2021/12/15 12:15:47;;;;;;;;;;;4.10;99.90;;;;;;5056096;28;19908;-80
2021/12/15 12:18:14;;;;;;;;;;;4.20;99.90;;;;;;5054994;28;19917;-80
2021/12/15 12:20:42;;;;;;;;;;;4.10;99.90;;;;;;5054195;28;20370;-80
2021/12/15 12:23:09;;;;;;;;;;;4.10;99.90;;;;;;5054896;28;19909;-80
2021/12/15 12:25:39;;;;;;;;;;;4.20;99.90;;;;;;5051546;28;19919;-80
2021/12/15 12:28:07;;;;;;;;;;;4.20;99.90;;;;;;5051370;28;19916;-80
2021/12/15 12:30:35;;;;;;;;;;;4.20;99.90;;;;;;5056090;28;20015;-81
2021/12/15 12:33:00;;;;;;;;;;;4.20;99.90;;;;;;5056027;28;20282;-80
2021/12/15 12:35:31;;;;;;;;;;;4.10;99.90;;;;;;5055357;28;19916;-80
2021/12/15 12:37:59;;;;;;;;;;;4.10;99.90;;;;;;5054812;28;19938;-80
2021/12/15 12:40:35;;;;;;;;;;;4.10;99.90;;;;;;5055330;28;19916;-80
2021/12/15 12:43:15;;;;;;;;;;;4.10;99.90;;;;;;5050451;28;20004;-80
2021/12/15 12:45:42;;;;;;;;;;;4.20;99.90;;;;;;5054469;28;19913;-81
2021/12/15 12:48:32;;;;;;;;;;;4.10;99.90;;;;;;5052228;28;20306;-80
2021/12/15 12:59:37;;;;;;;;;;;4.00;99.90;;;;;;5055147;28;19955;-80
2021/12/15 13:02:10;;;;;;;;;;;4.00;99.90;;;;;;5051452;28;19909;-81
2021/12/15 13:04:36;;;;;;;;;;;4.10;99.90;;;;;;5055282;28;19912;-81
2021/12/15 13:07:02;;;;;;;;;;;4.20;99.90;;;;;;5055506;28;19917;-80
2021/12/15 13:09:41;;;;;;;;;;;4.20;99.90;;;;;;5051290;28;19933;-80
2021/12/15 13:12:21;;;;;;;;;;;4.10;99.90;;;;;;5048622;28;19955;-80
2021/12/15 13:14:47;;;;;;;;;;;4.10;99.90;;;;;;5050794;28;19963;-80
2021/12/15 13:17:23;;;;;;;;;;;4.10;99.90;;;;;;5055864;28;19912;-80
2021/12/15 13:19:50;;;;;;;;;;;4.10;99.90;;;;;;5052462;28;19916;-81
2021/12/15 13:30:27;;;;;;;;;;;4.20;99.90;;;;;;5050278;28;19916;-80
2021/12/15 13:33:00;;;;;;;;;;;4.10;99.90;;;;;;5054685;28;19913;-80
2021/12/15 13:35:27;;;;;;;;;;;4.10;99.90;;;;;;5054901;28;19962;-81
2021/12/15 13:37:52;;;;;;;;;;;4.10;99.90;;;;;;5055111;28;20187;-81
2021/12/15 13:40:54;;;;;;;;;;;4.00;99.90;;;;;;5053602;28;19913;-80
2021/12/15 13:43:36;;;;;;;;;;;4.10;99.90;;;;;;5033900;28;19931;-80
2021/12/15 13:46:03;;;;;;;;;;;4.10;99.90;;;;;;5055147;28;19932;-81
2021/12/15 13:48:47;;;;;;;;;;;4.10;99.90;;;;;;5056979;28;20488;-81
2021/12/15 13:51:13;;;;;;;;;;;4.00;99.90;;;;;;5055878;28;19951;-81
2021/12/15 13:53:38;;;;;;;;;;;4.00;99.90;;;;;;5055518;28;19909;-81
2021/12/15 13:56:04;;;;;;;;;;;4.10;99.90;;;;;;5057662;28;20277;-81
2021/12/15 13:58:31;;;;;;;;;;;4.10;99.90;;;;;;5055621;28;19909;-81
2021/12/15 14:00:56;;;;;;;;;;;4.20;99.90;;;;;;5055331;28;19909;-81
2021/12/15 14:03:28;;;;;;;;;;;4.20;99.90;;;;;;5055995;28;19947;-81
2021/12/15 14:05:57;;;;;;;;;;;4.10;99.90;;;;;;5055993;28;19956;-80
2021/12/15 14:08:27;;;;;;;;;;;4.00;99.90;;;;;;5056918;28;20003;-81
2021/12/15 14:10:55;;;;;;;;;;;4.10;99.90;;;;;;5055605;28;19909;-81
2021/12/15 14:13:22;;;;;;;;;;;4.10;99.90;;;;;;5055147;28;20362;-81
2021/12/15 14:15:50;;;;;;;;;;;4.10;99.90;;;;;;5057028;28;20281;-81
2021/12/15 14:18:18;;;;;;;;;;;4.10;99.90;;;;;;5056680;28;19909;-81
2021/12/15 14:20:46;;;;;;;;;;;4.10;99.90;;;;;;5056555;28;19909;-81
2021/12/15 14:23:14;;;;;;;;;;;4.10;99.90;;;;;;5056251;28;19920;-81
2021/12/15 14:25:41;;;;;;;;;;;4.00;99.90;;;;;;5056909;28;19948;-81
2021/12/15 14:28:08;;;;;;;;;;;4.00;99.90;;;;;;5057020;28;19917;-81
2021/12/15 14:30:34;;;;;;;;;;;3.90;99.90;;;;;;5056295;28;20438;-81
2021/12/15 14:32:59;;;;;;;;;;;3.90;99.90;;;;;;5052892;28;20012;-81
2021/12/15 14:35:26;;;;;;;;;;;3.80;99.90;;;;;;5054106;28;19916;-81
2021/12/15 14:37:51;;;;;;;;;;;3.80;99.90;;;;;;5055335;28;20377;-81
2021/12/15 14:40:18;;;;;;;;;;;3.80;99.90;;;;;;5056948;28;19962;-81
2021/12/15 14:42:45;;;;;;;;;;;3.90;99.90;;;;;;5056340;28;20384;-81
2021/12/15 14:45:11;;;;;;;;;;;4.00;99.90;;;;;;5053849;28;19984;-80
2021/12/15 14:47:38;;;;;;;;;;;3.90;99.90;;;;;;5051683;28;20397;-80
2021/12/15 14:50:11;;;;;;;;;;;3.90;99.90;;;;;;5056442;28;19909;-81
2021/12/15 14:52:38;;;;;;;;;;;3.90;99.90;;;;;;5055762;28;20382;-80
2021/12/15 14:55:09;;;;;;;;;;;3.90;99.90;;;;;;5056076;28;19996;-81
2021/12/15 14:57:35;;;;;;;;;;;3.90;99.90;;;;;;5057289;28;19939;-81
2021/12/15 15:00:05;;;;;;;;;;;3.90;99.90;;;;;;5054896;28;20301;-81
2021/12/15 15:02:32;;;;;;;;;;;3.90;99.90;;;;;;5056429;28;20170;-81
2021/12/15 15:05:03;;;;;;;;;;;4.00;99.90;;;;;;5055056;28;19913;-81
2021/12/15 15:07:33;;;;;;;;;;;3.90;99.90;;;;;;5054380;28;19908;-81
2021/12/15 15:09:59;;;;;;;;;;;3.90;99.90;;;;;;5054630;28;19909;-81
2021/12/15 15:12:27;;;;;;;;;;;3.90;99.90;;;;;;5054042;28;19909;-81
2021/12/15 15:14:56;;;;;;;;;;;3.90;99.90;;;;;;5055071;28;19912;-81
2021/12/15 15:17:29;;;;;;;;;;;3.90;99.90;;;;;;5053559;28;20390;-80
2021/12/15 15:20:09;;;;;;;;;;;3.80;99.90;;;;;;5053538;28;19909;-81
2021/12/15 15:22:35;;;;;;;;;;;3.70;99.90;;;;;;5053777;28;20079;-81
2021/12/15 15:25:02;;;;;;;;;;;3.70;99.90;;;;;;5053935;28;19920;-80
2021/12/15 15:27:28;;;;;;;;;;;3.60;99.90;;;;;;5054358;28;19924;-81
2021/12/15 15:29:55;;;;;;;;;;;3.70;99.90;;;;;;5055229;28;20373;-81
2021/12/15 15:32:22;;;;;;;;;;;3.70;99.90;;;;;;5053158;28;19909;-81
2021/12/15 15:34:50;;;;;;;;;;;3.80;99.90;;;;;;5051723;28;20395;-80
2021/12/15 15:37:18;;;;;;;;;;;3.80;99.90;;;;;;5054932;28;19909;-81
2021/12/15 15:39:44;;;;;;;;;;;3.80;99.90;;;;;;5053374;28;20242;-81
2021/12/15 15:42:22;;;;;;;;;;;3.70;99.90;;;;;;5054817;28;19920;-80
2021/12/15 15:44:48;;;;;;;;;;;3.80;99.90;;;;;;5053296;28;20333;-81
2021/12/15 15:47:15;;;;;;;;;;;3.80;99.90;;;;;;5054442;28;20001;-81
2021/12/15 15:49:52;;;;;;;;;;;3.80;99.90;;;;;;5054238;28;20019;-81
2021/12/15 15:52:18;;;;;;;;;;;3.80;99.90;;;;;;5053941;28;19909;-81
2021/12/15 15:54:43;;;;;;;;;;;3.80;99.90;;;;;;5053511;28;19909;-81
2021/12/15 15:57:09;;;;;;;;;;;3.80;99.90;;;;;;5055657;28;19920;-81
2021/12/15 15:59:36;;;;;;;;;;;3.80;99.90;;;;;;5058647;28;19916;-81
2021/12/15 16:02:03;;;;;;;;;;;3.70;99.90;;;;;;5057937;28;20380;-81